Terminal Aerodrome Forecast
Issued by NWS

Home | Current Version | Previous Version | Text Only | Print | Product List | Glossary Off
Versions: 1 2 3 4 5 6 7 8 9 10 11 12 13 14 15

000
FTUS45 KGGW 241720
TAFSDY
TAF
KSDY 241720Z 2418/2518 27009KT P6SM BKN090
     FM250600 02004KT P6SM BKN070
     FM251200 02004KT P6SM -SHRA OVC020
      AMD LTD TO CLD VIS AND WIND=

USA.gov is the U.S. government's official web portal to all federal, state and local government web resources and services.